PDT,Max TemperatureF,Mean TemperatureF,Min TemperatureF,Max Dew PointF,MeanDew PointF,Min DewpointF,Max Humidity, Mean Humidity, Min Humidity, Max Sea Level PressureIn, Mean Sea Level PressureIn, Min Sea Level PressureIn, Max VisibilityMiles, Mean VisibilityMiles, Min VisibilityMiles, Max Wind SpeedMPH, Mean Wind SpeedMPH, Max Gust SpeedMPH,PrecipitationIn, CloudCover, Events, WindDirDegrees
2012-10-1,89,62,34,34,27,19,70,39,8,30.27,30.16,30.05,10,10,10,13,2,17,0.00,0,,326
2012-10-2,86,60,33,30,25,17,59,35,11,30.11,30.02,29.94,10,10,10,17,3,22,0.00,0,,347
2012-10-3,77,54,31,26,17,7,52,29,6,30.12,30.05,29.99,10,10,10,13,4,16,0.00,0,,34
2012-10-4,79,54,29,30,21,18,69,41,12,30.16,30.09,30.03,10,10,10,23,5,28,0.00,0,,317
2012-10-5,74,51,28,35,26,19,64,41,17,30.16,30.10,30.04,10,10,10,15,3,21,0.00,0,,341
2012-10-6,76,51,25,26,21,10,78,46,14,30.16,30.07,29.99,10,10,10,9,3,13,0.00,0,,68
2012-10-7,75,50,24,22,16,10,58,34,10,30.14,30.02,29.92,10,10,10,9,1,12,0.00,0,,46
2012-10-8,72,49,26,36,25,13,70,43,16,30.04,29.99,29.91,10,10,10,17,4,25,0.00,0,,264
2012-10-9,72,51,30,39,31,25,92,56,19,30.07,29.98,29.91,10,10,10,10,1,13,0.00,0,,260
2012-10-10,76,56,35,31,26,22,76,46,15,30.01,29.93,29.83,10,10,10,9,2,14,0.00,0,,119
2012-10-11,79,53,27,28,23,17,69,41,12,29.96,29.87,29.77,10,10,10,10,3,14,0.00,0,,25
2012-10-12,67,48,29,40,35,27,89,61,32,30.17,30.00,29.83,10,10,10,23,7,32,0.00,0,,261
2012-10-13,69,52,35,43,39,34,86,60,34,30.36,30.27,30.18,10,10,10,8,2,13,0.00,4,,319
2012-10-14,76,52,28,38,33,25,92,57,21,30.31,30.19,30.09,10,10,9,17,4,24,0.00,0,,255
2012-10-15,73,60,47,50,41,35,72,52,31,30.14,30.05,29.94,10,10,10,14,4,17,T,4,Rain,207
2012-10-16,68,51,33,54,44,25,80,52,23,30.18,30.00,29.89,10,10,10,26,10,31,T,4,Rain,256
2012-10-17,70,45,20,31,19,0,96,52,8,30.27,30.21,30.13,10,10,9,8,2,12,0.00,0,,13
2012-10-18,79,50,20,27,21,13,81,45,9,30.27,30.14,30.03,10,10,10,18,4,24,0.00,0,,209
2012-10-19,75,53,30,39,32,22,69,48,27,30.12,30.00,29.88,10,10,10,24,6,28,0.00,2,,239
2012-10-20,63,47,31,43,34,22,77,55,33,29.95,29.85,29.76,10,10,10,20,5,24,0.00,4,,311
2012-10-21,55,37,18,25,18,8,91,53,15,29.92,29.84,29.70,10,10,8,21,5,25,0.00,0,,207
2012-10-22,45,38,31,35,31,16,100,67,33,29.77,29.69,29.61,10,7,1,30,10,39,0.20,8,Rain-Snow,195
2012-10-23,42,34,26,33,29,24,92,74,55,29.99,29.88,29.73,10,8,2,18,5,22,0.01,6,Snow,228
2012-10-24,43,37,30,36,32,27,100,85,70,30.20,30.02,29.90,10,8,1,18,6,22,0.06,7,Rain-Snow,201
2012-10-25,48,35,22,34,28,22,100,69,38,30.43,30.30,30.17,10,8,0,9,1,13,T,4,Fog-Snow,60
2012-10-26,59,40,20,39,29,18,100,69,38,30.41,30.29,30.19,10,10,3,15,4,20,0.00,3,,201
2012-10-27,62,44,26,44,36,25,100,72,44,30.23,30.19,30.14,10,10,7,9,2,13,0.00,3,,86
2012-10-28,69,49,28,42,35,28,100,66,32,30.18,30.13,30.02,10,5,0,10,2,21,0.00,1,Fog,222
2012-10-29,68,48,28,41,34,27,100,61,22,30.19,30.13,30.05,10,10,9,13,2,17,0.00,0,,275
2012-10-30,67,50,32,33,30,25,89,55,20,30.15,30.06,29.96,10,10,7,14,4,21,0.00,0,,186
2012-10-31,66,53,39,43,33,23,89,56,23,29.99,29.91,29.79,10,10,10,36,12,44,0.02,4,Rain,179